Terminal Aerodrome Forecast
Issued by NWS

Home | Current Version | Previous Version | Text Only | Print | Product List | Glossary On
Versions: 1 2 3 4 5 6 7 8 9 10 11 12
030
FTPA31 PHFO 261135
TAFHJR
TAF
PHJR 261135Z 2612/2712 05005KT P6SM FEW025 SCT060
     FM262000 05010G22KT P6SM FEW025 SCT060
     FM270500 05005KT P6SM FEW025 SCT060=

USA.gov is the U.S. government's official web portal to all federal, state and local government web resources and services.